createdAt,value
2019-02-14T00:02:26.180Z,119.25
2019-02-14T00:05:29.540Z,113.40
2019-02-14T00:08:32.845Z,109.03
2019-02-14T00:11:36.392Z,113.75
2019-02-14T00:14:39.749Z,110.17
2019-02-14T00:17:44.174Z,111.03
2019-02-14T00:20:47.505Z,119.22
2019-02-14T00:23:50.968Z,130.75
2019-02-14T00:26:54.408Z,121.42
2019-02-14T00:29:57.809Z,129.85
2019-02-14T00:33:01.268Z,136.45
2019-02-14T00:36:04.708Z,127.77
2019-02-14T00:39:08.172Z,128.87
2019-02-14T00:42:11.776Z,126.50
2019-02-14T00:45:15.216Z,121.00
2019-02-14T00:48:18.684Z,122.70
2019-02-14T00:51:22.085Z,128.23
2019-02-14T00:54:25.485Z,133.10
2019-02-14T00:57:28.885Z,113.92
2019-02-14T01:00:32.325Z,119.85
2019-02-14T01:03:35.684Z,108.55
2019-02-14T01:06:39.080Z,125.42
2019-02-14T01:09:42.480Z,126.40
2019-02-14T01:12:45.881Z,108.92
2019-02-14T01:15:49.619Z,116.85
2019-02-14T01:18:52.989Z,112.37
2019-02-14T01:21:56.389Z,110.03
2019-02-14T01:24:59.784Z,113.57
2019-02-14T01:28:03.188Z,120.57
2019-02-14T01:31:07.613Z,101.58
2019-02-14T01:34:10.908Z,112.60
2019-02-14T01:37:14.305Z,107.45
2019-02-14T01:40:17.710Z,97.57
2019-02-14T01:43:21.212Z,105.60
2019-02-14T01:46:24.509Z,104.00
2019-02-14T01:49:27.807Z,99.20
2019-02-14T01:52:31.261Z,104.03
2019-02-14T01:55:34.680Z,96.67
2019-02-14T01:58:38.145Z,104.75
2019-02-14T02:01:41.444Z,89.03
2019-02-14T02:04:44.841Z,101.95
2019-02-14T02:07:48.341Z,98.30
2019-02-14T02:10:51.787Z,94.25
2019-02-14T02:13:55.282Z,91.12
2019-02-14T02:16:58.654Z,92.57
2019-02-14T02:20:02.053Z,93.13
2019-02-14T02:23:05.452Z,91.80
2019-02-14T02:26:08.745Z,96.30
2019-02-14T02:29:12.180Z,98.10
2019-02-14T02:32:15.540Z,90.30
2019-02-14T02:35:18.990Z,91.28
2019-02-14T02:38:21.950Z,91.22
2019-02-14T02:41:25.281Z,90.45
2019-02-14T02:44:28.772Z,94.75
2019-02-14T02:47:32.133Z,90.15
2019-02-14T02:50:35.476Z,89.52
2019-02-14T02:53:38.832Z,92.80
2019-02-14T02:56:42.172Z,84.67
2019-02-14T02:59:45.773Z,90.95
2019-02-14T03:02:49.029Z,96.92
2019-02-14T03:05:51.925Z,76.53
2019-02-14T03:08:55.221Z,81.32
2019-02-14T03:11:58.653Z,93.45
2019-02-14T03:15:01.950Z,95.25
2019-02-14T03:18:05.032Z,87.82
2019-02-14T03:21:08.546Z,82.40
2019-02-14T03:24:11.904Z,91.20
2019-02-14T03:27:15.419Z,90.72
2019-02-14T03:30:18.871Z,77.62
2019-02-14T03:33:22.213Z,82.33
2019-02-14T03:36:25.448Z,81.37
2019-02-14T03:39:28.800Z,77.00
2019-02-14T03:42:32.228Z,78.62
2019-02-14T03:45:35.744Z,78.90
2019-02-14T03:48:38.633Z,73.37
2019-02-14T03:51:41.940Z,71.70
2019-02-14T03:54:45.298Z,63.63
2019-02-14T03:57:48.149Z,69.23
2019-02-14T04:00:51.714Z,69.92
2019-02-14T04:03:55.406Z,73.15
2019-02-14T04:06:58.829Z,77.72
2019-02-14T04:10:02.288Z,65.47
2019-02-14T04:13:05.588Z,66.47
2019-02-14T04:16:08.924Z,75.32
2019-02-14T04:19:12.390Z,68.87
2019-02-14T04:22:15.688Z,62.00
2019-02-14T04:25:19.084Z,64.25
2019-02-14T04:28:22.385Z,67.70
2019-02-14T04:31:25.817Z,62.37
2019-02-14T04:34:29.291Z,69.10
2019-02-14T04:37:32.588Z,70.27
2019-02-14T04:40:35.873Z,66.20
2019-02-14T04:43:39.280Z,61.13
2019-02-14T04:46:42.612Z,65.50
2019-02-14T04:49:45.976Z,61.33
2019-02-14T04:52:49.478Z,62.05
2019-02-14T04:55:52.916Z,66.17
2019-02-14T04:58:56.281Z,63.98
2019-02-14T05:01:59.684Z,64.07
2019-02-14T05:05:03.121Z,57.17
2019-02-14T05:08:06.580Z,63.83
2019-02-14T05:11:09.961Z,56.70
2019-02-14T05:14:13.483Z,64.47
2019-02-14T05:17:16.788Z,62.98
2019-02-14T05:20:20.180Z,63.70
2019-02-14T05:23:23.603Z,59.73
2019-02-14T05:26:26.876Z,53.98
2019-02-14T05:29:30.176Z,56.00
2019-02-14T05:32:33.508Z,55.52
2019-02-14T05:35:36.871Z,55.17
2019-02-14T05:38:40.068Z,52.60
2019-02-14T05:41:43.411Z,53.63
2019-02-14T05:44:46.975Z,51.83
2019-02-14T05:47:50.261Z,50.80
2019-02-14T05:50:54.587Z,54.88
2019-02-14T05:53:57.561Z,53.13
2019-02-14T05:57:00.916Z,43.93
2019-02-14T06:00:05.091Z,43.65
2019-02-14T06:03:08.704Z,47.23
2019-02-14T06:06:11.996Z,50.28
2019-02-14T06:09:15.401Z,52.07
2019-02-14T06:12:18.264Z,50.40
2019-02-14T06:15:21.116Z,47.87
2019-02-14T06:18:24.005Z,42.75
2019-02-14T06:21:26.869Z,42.80
2019-02-14T06:24:30.327Z,44.57
2019-02-14T06:27:33.692Z,43.47
2019-02-14T06:30:37.041Z,44.35
2019-02-14T06:33:40.488Z,39.33
2019-02-14T06:36:44.057Z,45.38
2019-02-14T06:39:47.490Z,42.73
2019-02-14T06:42:51.004Z,41.37
2019-02-14T06:45:54.351Z,44.13
2019-02-14T06:48:57.693Z,44.27
2019-02-14T06:52:01.184Z,42.48
2019-02-14T06:55:04.595Z,46.83
2019-02-14T06:58:07.993Z,37.07
2019-02-14T07:01:11.353Z,46.53
2019-02-14T07:04:14.691Z,35.17
2019-02-14T07:07:18.989Z,39.20
2019-02-14T07:10:22.283Z,34.83
2019-02-14T07:13:25.920Z,39.63
2019-02-14T07:16:29.402Z,39.53
2019-02-14T07:19:32.812Z,41.77
2019-02-14T07:22:36.280Z,35.53
2019-02-14T07:25:39.576Z,38.83
2019-02-14T07:28:42.914Z,39.85
2019-02-14T07:31:46.382Z,36.40
2019-02-14T07:34:49.825Z,35.75
2019-02-14T07:37:53.425Z,40.40
2019-02-14T07:40:56.809Z,47.15
2019-02-14T07:44:00.316Z,46.77
2019-02-14T07:47:03.788Z,51.75
2019-02-14T07:50:26.040Z,41.93
2019-02-14T07:53:29.527Z,38.95
2019-02-14T07:56:32.990Z,44.53
2019-02-14T07:59:36.429Z,55.80
2019-02-14T08:02:39.789Z,43.87
2019-02-14T08:05:43.292Z,41.00
2019-02-14T08:08:46.627Z,41.95
2019-02-14T08:11:49.988Z,48.25
2019-02-14T08:14:53.532Z,43.37
2019-02-14T08:17:56.994Z,48.95
2019-02-14T08:21:00.292Z,46.42
2019-02-14T08:24:03.633Z,39.63
2019-02-14T08:27:06.988Z,40.15
2019-02-14T08:30:12.128Z,42.85
2019-02-14T08:33:15.628Z,39.88
2019-02-14T08:36:19.136Z,45.25
2019-02-14T08:39:22.478Z,37.60
2019-02-14T08:42:25.856Z,37.53
2019-02-14T08:45:29.429Z,45.30
2019-02-14T08:48:32.737Z,49.80
2019-02-14T08:51:37.871Z,46.77
2019-02-14T08:54:41.177Z,49.42
2019-02-14T08:57:44.495Z,48.10
2019-02-14T09:00:47.972Z,42.65
2019-02-14T09:03:51.312Z,43.92
2019-02-14T09:06:54.668Z,40.35
2019-02-14T09:09:57.867Z,43.65
2019-02-14T09:13:01.364Z,45.80
2019-02-14T09:16:04.769Z,41.58
2019-02-14T09:19:08.104Z,47.00
2019-02-14T09:22:11.464Z,41.00
2019-02-14T09:25:14.759Z,43.28
2019-02-14T09:28:18.265Z,40.28
2019-02-14T09:31:21.688Z,47.83
2019-02-14T09:34:25.214Z,48.73
2019-02-14T09:37:28.664Z,47.10
2019-02-14T09:40:31.967Z,43.58
2019-02-14T09:43:35.391Z,40.43
2019-02-14T09:46:38.777Z,46.40
2019-02-14T09:49:42.210Z,44.30
2019-02-14T09:52:45.673Z,45.90
2019-02-14T09:55:48.967Z,48.08
2019-02-14T09:58:52.277Z,44.33
2019-02-14T10:01:55.665Z,43.95
2019-02-14T10:04:58.959Z,50.05
2019-02-14T10:08:02.360Z,44.33
2019-02-14T10:11:05.677Z,42.83
2019-02-14T10:14:08.954Z,42.85
2019-02-14T10:17:12.252Z,43.30
2019-02-14T10:20:16.064Z,43.92
2019-02-14T10:23:20.533Z,46.55
2019-02-14T10:26:23.988Z,47.80
2019-02-14T10:29:27.285Z,49.55
2019-02-14T10:32:30.684Z,49.35
2019-02-14T10:35:34.031Z,46.18
2019-02-14T10:38:37.485Z,46.92
2019-02-14T10:41:41.028Z,39.58
2019-02-14T10:44:44.489Z,39.73
2019-02-14T10:47:47.831Z,37.80
2019-02-14T10:50:51.432Z,36.95
2019-02-14T10:53:55.001Z,35.38
2019-02-14T10:56:58.437Z,31.27
2019-02-14T11:00:03.598Z,36.15
2019-02-14T11:03:07.144Z,30.88
2019-02-14T11:06:10.784Z,29.85
2019-02-14T11:09:14.251Z,33.18
2019-02-14T11:12:17.629Z,33.70
2019-02-14T11:15:21.052Z,32.38
2019-02-14T11:18:24.392Z,35.92
2019-02-14T11:21:27.748Z,30.95
2019-02-14T11:24:31.084Z,33.15
2019-02-14T11:27:34.485Z,39.13
2019-02-14T11:30:37.980Z,30.77
2019-02-14T11:33:41.450Z,31.55
2019-02-14T11:36:44.889Z,32.23
2019-02-14T11:39:48.350Z,35.35
2019-02-14T11:42:51.696Z,28.00
2019-02-14T11:45:55.187Z,27.10
2019-02-14T11:48:58.555Z,24.67
2019-02-14T11:52:02.056Z,24.47
2019-02-14T11:55:06.327Z,27.85
2019-02-14T11:58:10.800Z,28.70
2019-02-14T12:01:14.105Z,27.05
2019-02-14T12:04:17.437Z,26.87
2019-02-14T12:07:20.901Z,31.15
2019-02-14T12:10:24.231Z,28.62
2019-02-14T12:13:27.696Z,38.23
2019-02-14T12:16:31.200Z,31.48
2019-02-14T12:19:34.700Z,30.62
2019-02-14T12:22:46.334Z,34.33
2019-02-14T12:25:43.588Z,34.05
2019-02-14T12:28:47.148Z,30.32
2019-02-14T12:31:50.700Z,37.75
2019-02-14T12:34:54.055Z,35.33
2019-02-14T12:37:57.352Z,29.90
2019-02-14T12:41:00.892Z,31.05
2019-02-14T12:44:04.252Z,32.05
2019-02-14T12:47:07.651Z,32.98
2019-02-14T12:50:10.993Z,29.52
2019-02-14T12:53:14.355Z,33.35
2019-02-14T12:56:17.793Z,33.00
2019-02-14T12:59:21.150Z,37.38
2019-02-14T13:02:24.598Z,34.33
2019-02-14T13:05:28.093Z,35.30
2019-02-14T13:08:31.457Z,33.08
2019-02-14T13:11:34.856Z,31.00
2019-02-14T13:14:38.155Z,32.73
2019-02-14T13:17:41.552Z,33.58
2019-02-14T13:20:44.992Z,39.55
2019-02-14T13:23:48.452Z,36.42
2019-02-14T13:26:51.856Z,40.70
2019-02-14T13:29:55.253Z,42.30
2019-02-14T13:32:58.658Z,36.28
2019-02-14T13:36:02.092Z,37.63
2019-02-14T13:39:06.887Z,38.45
2019-02-14T13:42:10.392Z,41.05
2019-02-14T13:45:14.821Z,33.98
2019-02-14T13:48:18.259Z,34.48
2019-02-14T13:51:21.620Z,32.98
2019-02-14T13:54:24.908Z,38.42
2019-02-14T13:57:28.208Z,35.17
2019-02-14T14:00:31.621Z,35.23
2019-02-14T14:03:35.016Z,40.23
2019-02-14T14:06:38.408Z,40.05
2019-02-14T14:09:41.857Z,38.92
2019-02-14T14:12:45.212Z,45.17
2019-02-14T14:15:48.606Z,44.15
2019-02-14T14:18:52.008Z,50.28
2019-02-14T14:21:55.512Z,41.98
2019-02-14T14:24:58.916Z,41.37
2019-02-14T14:28:03.436Z,42.93
2019-02-14T14:31:06.734Z,43.78
2019-02-14T14:34:10.176Z,42.80
2019-02-14T14:37:13.676Z,46.23
2019-02-14T14:40:17.136Z,41.30
2019-02-14T14:43:28.337Z,42.98
2019-02-14T14:46:39.548Z,36.10
2019-02-14T14:49:42.901Z,39.53
2019-02-14T14:52:46.344Z,31.93
2019-02-14T14:55:50.117Z,35.28
2019-02-14T14:58:55.369Z,30.60
2019-02-14T15:01:58.797Z,30.95
2019-02-14T15:05:02.158Z,31.15
2019-02-14T15:08:05.811Z,29.87
2019-02-14T15:11:09.271Z,31.93
2019-02-14T15:14:12.664Z,26.35
2019-02-14T15:17:16.208Z,24.98
2019-02-14T15:20:19.565Z,26.33
2019-02-14T15:23:23.005Z,26.90
2019-02-14T15:26:26.469Z,32.88
2019-02-14T15:29:29.972Z,25.57
2019-02-14T15:32:33.408Z,28.20
2019-02-14T15:35:36.872Z,28.95
2019-02-14T15:38:40.416Z,28.70
2019-02-14T15:41:43.876Z,28.17
2019-02-14T15:44:47.276Z,28.95
2019-02-14T15:47:50.716Z,31.42
2019-02-14T15:50:56.553Z,35.78
2019-02-14T15:54:00.525Z,30.15
2019-02-14T15:57:03.988Z,32.10
2019-02-14T16:00:10.425Z,32.10
2019-02-14T16:03:14.655Z,35.28
2019-02-14T16:06:18.044Z,36.93
2019-02-14T16:09:21.341Z,32.33
2019-02-14T16:12:24.777Z,34.13
2019-02-14T16:15:29.221Z,40.33
2019-02-14T16:18:33.730Z,29.63
2019-02-14T16:21:37.085Z,33.15
2019-02-14T16:24:41.269Z,29.67
2019-02-14T16:27:46.423Z,31.75
2019-02-14T16:30:52.382Z,30.85
2019-02-14T16:33:56.012Z,28.47
2019-02-14T16:36:59.308Z,32.78
2019-02-14T16:40:03.120Z,29.35
2019-02-14T16:43:06.556Z,32.33
2019-02-14T16:46:09.916Z,36.13
2019-02-14T16:49:13.342Z,25.05
2019-02-14T16:52:16.826Z,33.88
2019-02-14T16:55:20.224Z,28.67
2019-02-14T16:58:23.660Z,30.80
2019-02-14T17:01:27.128Z,30.45
2019-02-14T17:04:30.427Z,40.28
2019-02-14T17:07:33.820Z,29.50
2019-02-14T17:10:37.413Z,38.27
2019-02-14T17:13:40.880Z,73.37
2019-02-14T17:16:44.332Z,51.40
2019-02-14T17:19:47.624Z,41.33
2019-02-14T17:22:51.025Z,53.63
2019-02-14T17:25:54.425Z,58.30
2019-02-14T17:28:57.625Z,60.88
2019-02-14T17:32:01.023Z,47.83
2019-02-14T17:35:04.414Z,42.00
2019-02-14T17:38:07.719Z,46.03
2019-02-14T17:41:11.118Z,33.23
2019-02-14T17:44:14.416Z,31.37
2019-02-14T17:47:17.813Z,44.60
2019-02-14T17:50:22.336Z,40.43
2019-02-14T17:53:25.848Z,45.07
2019-02-14T17:56:29.290Z,45.07
2019-02-14T17:59:32.644Z,46.80
2019-02-14T18:02:36.149Z,43.63
2019-02-14T18:05:39.647Z,45.33
2019-02-14T18:08:43.048Z,37.67
2019-02-14T18:11:46.451Z,47.50
2019-02-14T18:14:49.952Z,42.50
2019-02-14T18:17:53.350Z,40.80
2019-02-14T18:20:56.652Z,44.27
2019-02-14T18:23:59.989Z,80.17
2019-02-14T18:27:03.487Z,57.60
2019-02-14T18:30:07.668Z,64.50
2019-02-14T18:33:11.210Z,53.40
2019-02-14T18:36:14.568Z,58.17
2019-02-14T18:39:18.009Z,43.40
2019-02-14T18:42:21.508Z,45.13
2019-02-14T18:45:24.872Z,54.63
2019-02-14T18:48:28.444Z,65.07
2019-02-14T18:51:31.888Z,69.70
2019-02-14T18:54:35.316Z,54.57
2019-02-14T18:57:38.827Z,59.47
2019-02-14T19:00:42.388Z,44.67
2019-02-14T19:03:45.829Z,49.80
2019-02-14T19:06:49.185Z,42.03
2019-02-14T19:09:52.688Z,46.43
2019-02-14T19:12:56.023Z,47.80
2019-02-14T19:15:59.488Z,46.73
2019-02-14T19:19:02.926Z,39.37
2019-02-14T19:22:06.385Z,46.63
2019-02-14T19:25:10.102Z,36.57
2019-02-14T19:28:13.533Z,37.27
2019-02-14T19:31:16.916Z,45.60
2019-02-14T19:34:20.443Z,47.43
2019-02-14T19:37:23.796Z,44.80
2019-02-14T19:40:27.196Z,40.20
2019-02-14T19:43:30.740Z,41.97
2019-02-14T19:46:34.200Z,45.10
2019-02-14T19:49:37.640Z,51.20
2019-02-14T19:52:41.085Z,52.33
2019-02-14T19:55:44.486Z,51.53
2019-02-14T19:58:48.024Z,55.83
2019-02-14T20:01:51.496Z,55.23
2019-02-14T20:04:54.897Z,45.13
2019-02-14T20:07:58.190Z,36.53
2019-02-14T20:11:01.703Z,45.07
2019-02-14T20:14:05.132Z,49.27
2019-02-14T20:17:08.588Z,38.93
2019-02-14T20:20:11.993Z,32.20
2019-02-14T20:23:16.456Z,35.40
2019-02-14T20:26:20.836Z,36.23
2019-02-14T20:29:24.396Z,46.00
2019-02-14T20:32:27.950Z,34.50
2019-02-14T20:35:31.345Z,42.27
2019-02-14T20:38:34.784Z,41.70
2019-02-14T20:41:45.483Z,44.60
2019-02-14T20:44:43.396Z,35.73
2019-02-14T20:47:46.892Z,35.93
2019-02-14T20:50:50.293Z,36.97
2019-02-14T20:53:53.735Z,47.10
2019-02-14T20:56:57.201Z,51.43
2019-02-14T21:00:00.515Z,51.70
2019-02-14T21:03:04.300Z,43.03
2019-02-14T21:06:08.000Z,45.23
2019-02-14T21:09:11.552Z,40.37
2019-02-14T21:12:15.028Z,36.00
2019-02-14T21:15:18.524Z,39.97
2019-02-14T21:18:22.112Z,35.27
2019-02-14T21:21:25.525Z,36.13
2019-02-14T21:24:28.870Z,38.33
2019-02-14T21:27:35.086Z,29.90
2019-02-14T21:30:37.564Z,34.63
2019-02-14T21:33:40.966Z,29.50
2019-02-14T21:36:44.367Z,36.73
2019-02-14T21:39:47.768Z,36.10
2019-02-14T21:42:51.083Z,30.20
2019-02-14T21:45:54.363Z,29.90
2019-02-14T21:48:57.766Z,33.23
2019-02-14T21:52:01.170Z,42.30
2019-02-14T21:55:04.777Z,37.50
2019-02-14T21:58:08.270Z,35.63
2019-02-14T22:01:12.572Z,36.53
2019-02-14T22:04:15.889Z,28.97
2019-02-14T22:07:19.290Z,33.53
2019-02-14T22:10:24.440Z,37.37
2019-02-14T22:13:27.762Z,33.37
2019-02-14T22:16:31.341Z,35.37
2019-02-14T22:19:34.733Z,36.13
2019-02-14T22:22:38.269Z,43.20
2019-02-14T22:25:41.664Z,47.17
2019-02-14T22:28:45.233Z,44.43
2019-02-14T22:31:48.581Z,43.63
2019-02-14T22:34:51.936Z,43.10
2019-02-14T22:37:55.488Z,43.47
2019-02-14T22:40:58.932Z,40.53
2019-02-14T22:44:02.580Z,46.97
2019-02-14T22:47:06.088Z,43.57
2019-02-14T22:50:10.204Z,40.43
2019-02-14T22:53:13.561Z,36.40
2019-02-14T22:56:17.101Z,44.10
2019-02-14T22:59:20.468Z,45.80
2019-02-14T23:02:24.007Z,35.93
2019-02-14T23:05:27.504Z,35.13
2019-02-14T23:08:30.872Z,38.57
2019-02-14T23:11:34.212Z,31.47
2019-02-14T23:14:37.668Z,24.77
2019-02-14T23:17:41.172Z,36.77
2019-02-14T23:20:44.508Z,36.10
2019-02-14T23:23:48.064Z,41.63
2019-02-14T23:26:51.700Z,37.03
2019-02-14T23:29:55.074Z,39.07
2019-02-14T23:32:58.579Z,38.70
2019-02-14T23:36:02.104Z,35.87
2019-02-14T23:39:05.984Z,31.20
2019-02-14T23:42:11.376Z,36.07
2019-02-14T23:45:14.837Z,39.37
2019-02-14T23:48:18.247Z,32.87
2019-02-14T23:51:21.793Z,26.63
2019-02-14T23:54:25.369Z,32.17
2019-02-14T23:57:28.872Z,25.63
